Time;durP1;ratioP1;P1;durP2;ratioP2;P2;SDS_P1;SDS_P2;PMS_P1;PMS_P2;Temp;Humidity;BMP_temperature;BMP_pressure;BME280_temperature;BME280_humidity;BME280_pressure;Samples;Min_cycle;Max_cycle;Signal;HPM_P1;HPM_P2
2022/07/10 00:01:22;;;;;;;4.97;2.00;;;;;;;12.15;81.57;99327.97;4138458;28;20030;-71
2022/07/10 00:03:23;;;;;;;5.40;1.50;;;;;;;12.09;81.82;99324.72;4135967;28;20807;-70
2022/07/10 00:05:24;;;;;;;4.03;1.60;;;;;;;12.07;81.68;99316.72;4136885;28;20406;-71
2022/07/10 00:07:25;;;;;;;2.55;1.65;;;;;;;12.05;81.75;99323.81;4138504;28;20030;-71
2022/07/10 00:09:27;;;;;;;5.28;1.50;;;;;;;12.06;82.27;99325.44;4137197;28;20573;-71
2022/07/10 00:11:27;;;;;;;;;;;;;;;12.05;82.09;99323.81;4137934;28;20173;-71
2022/07/10 00:13:28;;;;;;;4.55;1.40;;;;;;;12.07;82.22;99321.47;4136938;28;19949;-71
2022/07/10 00:15:28;;;;;;;3.08;1.40;;;;;;;12.09;82.23;99325.50;4136825;28;20037;-70
2022/07/10 00:17:29;;;;;;;3.42;1.58;;;;;;;12.07;82.27;99333.38;4137538;28;20849;-70
2022/07/10 00:19:29;;;;;;;4.07;1.50;;;;;;;11.96;83.17;99312.16;4137403;28;20037;-71
2022/07/10 00:21:29;;;;;;;3.45;1.60;;;;;;;11.91;83.78;99315.22;4137665;28;20030;-71
2022/07/10 00:23:30;;;;;;;3.72;1.40;;;;;;;11.89;83.64;99312.03;4136459;28;20038;-71
2022/07/10 00:25:30;;;;;;;1.80;1.45;;;;;;;11.86;84.56;99313.56;4137374;28;20382;-71
2022/07/10 00:27:31;;;;;;;4.78;1.77;;;;;;;11.94;84.26;99317.28;4137453;28;20061;-70
2022/07/10 00:29:31;;;;;;;2.70;1.38;;;;;;;11.91;84.75;99329.09;4137252;28;20037;-70
2022/07/10 00:31:32;;;;;;;5.35;2.00;;;;;;;11.90;84.65;99321.94;4136564;28;20067;-70
2022/07/10 00:33:32;;;;;;;2.78;1.92;;;;;;;11.92;84.45;99323.19;4135147;28;20080;-70
2022/07/10 00:35:32;;;;;;;4.32;1.63;;;;;;;11.92;84.54;99320.44;4136841;28;20625;-70
2022/07/10 00:37:33;;;;;;;4.50;1.60;;;;;;;11.95;83.88;99316.09;4137471;28;20333;-71
2022/07/10 00:39:34;;;;;;;6.68;2.25;;;;;;;12.01;83.48;99321.00;4136844;28;20107;-71
2022/07/10 00:41:34;;;;;;;2.42;1.98;;;;;;;12.01;81.58;99326.53;4137206;28;20046;-71
2022/07/10 00:43:58;;;;;;;1.80;1.20;;;;;;;12.00;80.39;99313.06;4136601;28;20045;-71
2022/07/10 00:45:58;;;;;;;1.85;1.42;;;;;;;12.08;80.08;99320.31;4136859;28;20103;-71
2022/07/10 00:48:00;;;;;;;1.90;1.10;;;;;;;12.10;80.02;99326.31;4137162;28;20459;-71
2022/07/10 00:50:00;;;;;;;5.20;2.03;;;;;;;12.16;79.43;99315.69;4136433;28;20112;-71
2022/07/10 00:52:03;;;;;;;3.13;1.20;;;;;;;12.19;77.64;99324.09;4137304;28;20461;-71
2022/07/10 00:54:05;;;;;;;6.65;1.42;;;;;;;12.19;77.63;99315.78;4136161;28;20141;-71
2022/07/10 00:56:07;;;;;;;2.92;1.60;;;;;;;12.20;77.87;99316.56;4137911;28;20149;-71
2022/07/10 00:58:08;;;;;;;3.70;1.60;;;;;;;12.20;77.97;99305.47;4135377;28;20515;-71
2022/07/10 01:00:11;;;;;;;3.50;1.30;;;;;;;12.19;77.32;99304.69;4136736;28;20041;-70
2022/07/10 01:02:13;;;;;;;2.75;1.05;;;;;;;12.22;77.58;99303.13;4135929;28;20053;-70
2022/07/10 01:04:14;;;;;;;1.50;1.17;;;;;;;12.19;77.44;99310.22;4137074;28;20099;-70
2022/07/10 01:06:15;;;;;;;3.42;1.15;;;;;;;12.14;77.43;99304.16;4136468;28;20037;-71
2022/07/10 01:08:16;;;;;;;4.53;1.57;;;;;;;12.21;77.17;99307.09;4137384;28;20034;-71
2022/07/10 01:10:16;;;;;;;5.18;1.45;;;;;;;12.20;77.15;99305.47;4136831;28;20049;-71
2022/07/10 01:12:17;;;;;;;2.75;1.20;;;;;;;12.20;77.30;99306.28;4136578;28;20375;-71
2022/07/10 01:14:17;;;;;;;4.50;1.30;;;;;;;12.14;77.49;99301.41;4137133;28;20034;-71
2022/07/10 01:16:18;;;;;;;6.55;1.30;;;;;;;12.12;77.23;99301.78;4136926;28;20416;-71
2022/07/10 01:18:19;;;;;;;2.78;1.40;;;;;;;12.12;77.59;99304.53;4134703;28;20293;-71
2022/07/10 01:20:19;;;;;;;3.83;1.42;;;;;;;12.09;77.59;99297.78;4136394;28;20029;-71
2022/07/10 01:22:19;;;;;;;3.50;1.63;;;;;;;12.07;77.68;99304.84;4137134;28;20025;-71
2022/07/10 01:24:20;;;;;;;4.80;1.20;;;;;;;12.06;77.72;99295.72;4136083;28;20029;-71
2022/07/10 01:26:23;;;;;;;5.55;1.42;;;;;;;12.09;77.87;99296.97;4134405;28;20038;-71
2022/07/10 01:28:24;;;;;;;5.95;1.40;;;;;;;12.05;78.32;99294.13;4136109;28;20377;-70
2022/07/10 01:30:26;;;;;;;1.03;1.00;;;;;;;12.05;78.51;99293.31;4137781;28;20060;-70
2022/07/10 01:32:26;;;;;;;3.97;1.50;;;;;;;12.02;78.88;99288.50;4136177;28;20268;-71
2022/07/10 01:34:27;;;;;;;5.55;1.27;;;;;;;11.95;79.58;99274.50;4135804;28;20418;-71
2022/07/10 01:36:29;;;;;;;2.25;1.15;;;;;;;11.87;80.01;99283.88;4137747;28;20273;-71
2022/07/10 01:38:29;;;;;;;4.68;1.52;;;;;;;11.84;80.13;99284.59;4137031;28;20033;-71
2022/07/10 01:40:30;;;;;;;4.07;2.30;;;;;;;11.90;80.22;99289.47;4135793;28;20116;-71
2022/07/10 01:42:30;;;;;;;3.83;1.92;;;;;;;11.86;80.68;99280.28;4136650;28;20545;-71
2022/07/10 01:44:31;;;;;;;3.20;1.30;;;;;;;11.81;80.76;99275.84;4135947;28;20766;-71
2022/07/10 01:46:31;;;;;;;4.75;1.35;;;;;;;11.75;81.25;99266.22;4134975;28;20049;-71
2022/07/10 01:48:31;;;;;;;4.00;1.50;;;;;;;11.73;81.51;99271.28;4135282;28;20434;-70
2022/07/10 01:50:32;;;;;;;5.10;1.55;;;;;;;11.69;81.71;99273.22;4135853;28;20038;-70
2022/07/10 01:52:32;;;;;;;8.32;1.70;;;;;;;11.71;81.71;99270.88;4135688;28;20026;-70
2022/07/10 01:54:33;;;;;;;4.50;1.40;;;;;;;11.73;81.63;99276.03;4135829;28;20437;-70
2022/07/10 01:56:33;;;;;;;5.80;1.52;;;;;;;11.75;81.42;99276.47;4137160;28;20030;-70
2022/07/10 01:58:34;;;;;;;4.43;1.52;;;;;;;11.76;81.75;99276.13;4135374;28;20034;-71
2022/07/10 02:00:34;;;;;;;3.67;1.27;;;;;;;11.74;81.64;99281.22;4135903;28;20042;-71
2022/07/10 02:02:35;;;;;;;3.72;1.38;;;;;;;11.74;82.12;99272.09;4135491;28;20037;-71
2022/07/10 02:04:41;;;;;;;3.00;1.30;;;;;;;11.74;82.14;99270.13;4135800;28;20124;-71
2022/07/10 02:06:42;;;;;;;3.80;1.67;;;;;;;11.72;82.60;99272.47;4136224;28;20069;-71
2022/07/10 02:08:42;;;;;;;3.25;1.30;;;;;;;11.75;82.26;99271.75;4135513;28;20658;-71
2022/07/10 02:10:44;;;;;;;3.78;1.98;;;;;;;11.78;82.23;99279.31;4135906;28;20053;-71
2022/07/10 02:12:45;;;;;;;2.63;1.33;;;;;;;11.78;82.20;99276.56;4135961;28;20038;-71
2022/07/10 02:14:45;;;;;;;4.00;1.40;;;;;;;11.79;82.52;99269.03;4135525;28;20385;-71
2022/07/10 02:16:45;;;;;;;1.90;1.20;;;;;;;11.81;82.67;99273.06;4134534;28;20656;-71
2022/07/10 02:18:46;;;;;;;2.05;1.13;;;;;;;11.79;82.91;99275.38;4136371;28;20026;-71
2022/07/10 02:20:46;;;;;;;3.35;1.45;;;;;;;11.78;82.59;99264.66;4136813;28;20050;-71
2022/07/10 02:22:46;;;;;;;3.60;1.50;;;;;;;11.82;80.99;99263.56;4135963;28;20103;-71
2022/07/10 02:24:47;;;;;;;2.35;1.20;;;;;;;11.87;80.46;99270.00;4134912;28;20038;-71
2022/07/10 02:26:48;;;;;;;2.75;1.15;;;;;;;11.88;78.82;99268.84;4136193;28;20034;-71
2022/07/10 02:28:48;;;;;;;2.45;1.27;;;;;;;11.95;76.64;99263.41;4135751;28;20331;-70
2022/07/10 02:30:49;;;;;;;1.92;1.38;;;;;;;11.96;75.86;99260.28;4136621;28;20384;-71
2022/07/10 02:32:49;;;;;;;4.57;1.40;;;;;;;11.98;74.93;99254.34;4137557;28;20112;-71
2022/07/10 02:34:50;;;;;;;2.45;1.08;;;;;;;12.03;74.39;99251.28;4135775;28;20034;-71
2022/07/10 02:36:50;;;;;;;3.75;1.20;;;;;;;12.05;73.97;99246.16;4135010;28;20033;-71
2022/07/10 02:38:50;;;;;;;4.00;1.35;;;;;;;12.08;73.11;99254.56;4136293;28;20466;-71
2022/07/10 02:40:51;;;;;;;2.10;1.40;;;;;;;12.10;72.79;99251.41;4136168;28;20034;-71
2022/07/10 02:42:51;;;;;;;3.22;1.35;;;;;;;12.07;72.99;99250.16;4135553;28;20393;-71
2022/07/10 02:44:51;;;;;;;2.78;1.23;;;;;;;12.03;72.96;99249.31;4134363;28;20030;-71
2022/07/10 02:46:51;;;;;;;3.50;0.85;;;;;;;11.99;72.57;99247.63;4134324;28;20030;-71
2022/07/10 02:48:52;;;;;;;2.08;1.15;;;;;;;12.02;71.97;99247.72;4138424;28;20044;-71
2022/07/10 02:50:52;;;;;;;3.03;1.10;;;;;;;12.03;72.00;99246.53;4139429;28;20142;-71
2022/07/10 02:52:52;;;;;;;4.22;1.50;;;;;;;11.96;72.71;99243.63;4138901;28;20141;-71
2022/07/10 02:54:53;;;;;;;6.00;1.75;;;;;;;11.90;72.69;99231.25;4138123;28;20066;-71
2022/07/10 02:56:53;;;;;;;7.97;3.55;;;;;;;11.85;72.07;99245.41;4139495;28;20119;-71
2022/07/10 02:58:53;;;;;;;9.35;3.30;;;;;;;11.80;72.01;99248.47;4137253;28;20650;-71
2022/07/10 03:00:54;;;;;;;7.50;2.60;;;;;;;11.76;71.89;99237.31;4137881;28;20470;-70
2022/07/10 03:02:55;;;;;;;5.70;2.20;;;;;;;11.71;72.26;99236.78;4139139;28;20485;-70
2022/07/10 03:04:55;;;;;;;4.10;1.65;;;;;;;11.67;72.17;99235.94;4135660;28;20509;-70
2022/07/10 03:06:55;;;;;;;3.58;1.77;;;;;;;11.57;72.76;99242.84;4138074;28;20053;-70
2022/07/10 03:08:56;;;;;;;4.90;1.45;;;;;;;11.47;73.59;99229.59;4138980;28;20065;-70
2022/07/10 03:10:56;;;;;;;4.35;1.42;;;;;;;11.37;73.97;99239.31;4138641;28;20026;-70
2022/07/10 03:12:56;;;;;;;5.63;1.55;;;;;;;11.21;75.05;99236.59;4138411;28;20034;-70
2022/07/10 03:14:59;;;;;;;4.03;1.60;;;;;;;11.19;75.08;99233.41;4137549;28;20042;-70
2022/07/10 03:16:59;;;;;;;8.98;2.67;;;;;;;11.10;74.79;99235.59;4139033;28;20034;-70
2022/07/10 03:18:59;;;;;;;4.22;2.08;;;;;;;11.06;75.01;99233.91;4137311;28;20173;-70
2022/07/10 03:21:00;;;;;;;8.73;2.67;;;;;;;10.97;75.46;99229.38;4138690;28;20062;-70
2022/07/10 03:23:00;;;;;;;7.65;3.70;;;;;;;10.95;75.22;99234.47;4138814;28;20099;-70
2022/07/10 03:25:01;;;;;;;11.00;5.50;;;;;;;10.97;74.87;99234.91;4137443;28;20394;-70
2022/07/10 03:27:01;;;;;;;12.23;8.02;;;;;;;10.95;74.81;99223.41;4138330;28;20557;-70
2022/07/10 03:29:01;;;;;;;15.30;7.88;;;;;;;11.00;74.76;99224.25;4136274;28;20021;-70
2022/07/10 03:31:02;;;;;;;14.88;7.57;;;;;;;10.96;74.12;99225.00;4138332;28;20037;-70
2022/07/10 03:33:03;;;;;;;10.70;5.85;;;;;;;10.95;73.89;99214.28;4137161;28;20587;-70
2022/07/10 03:35:04;;;;;;;11.15;5.60;;;;;;;11.04;73.35;99219.63;4138649;28;20129;-70
2022/07/10 03:37:05;;;;;;;9.32;4.78;;;;;;;11.03;74.12;99226.31;4139521;28;20498;-70
2022/07/10 03:39:05;;;;;;;8.88;4.55;;;;;;;10.90;74.22;99223.66;4137764;28;20057;-70
2022/07/10 03:41:06;;;;;;;9.00;4.18;;;;;;;10.89;74.06;99221.25;4138818;28;20064;-70
2022/07/10 03:43:06;;;;;;;6.90;4.00;;;;;;;10.84;74.69;99229.84;4136477;28;20125;-70
2022/07/10 03:45:07;;;;;;;8.23;3.88;;;;;;;10.73;75.14;99221.31;4137919;28;20386;-70
2022/07/10 03:47:07;;;;;;;12.63;3.53;;;;;;;10.79;74.93;99227.38;4138756;28;20463;-70
2022/07/10 03:49:07;;;;;;;6.32;3.70;;;;;;;10.73;74.92;99237.13;4137784;28;20063;-70
2022/07/10 03:51:08;;;;;;;6.35;3.70;;;;;;;10.69;75.77;99223.22;4138768;28;20370;-70
2022/07/10 03:53:08;;;;;;;7.40;3.45;;;;;;;10.70;75.26;99224.81;4137187;28;20041;-70
2022/07/10 03:55:09;;;;;;;4.40;2.75;;;;;;;10.73;74.98;99235.16;4138239;28;20052;-70
2022/07/10 03:59:29;;;;;;;5.55;2.72;;;;;;;10.81;75.37;99234.16;4135698;28;20072;-70
2022/07/10 04:01:29;;;;;;;5.28;2.30;;;;;;;10.88;74.49;99230.75;4138164;28;20030;-70
2022/07/10 04:03:29;;;;;;;6.28;1.95;;;;;;;10.92;73.87;99234.38;4137967;28;20454;-70
2022/07/10 04:05:30;;;;;;;3.80;2.78;;;;;;;10.94;74.82;99238.41;4137036;28;20044;-70
2022/07/10 04:07:30;;;;;;;5.75;2.15;;;;;;;10.94;75.34;99238.41;4137583;28;20463;-70
2022/07/10 04:09:31;;;;;;;5.00;2.38;;;;;;;10.94;75.67;99235.63;4137706;28;20045;-70
2022/07/10 04:11:31;;;;;;;4.95;2.33;;;;;;;10.95;75.40;99234.47;4138159;28;20340;-70
2022/07/10 04:13:31;;;;;;;5.35;2.33;;;;;;;10.92;76.03;99231.59;4137605;28;20034;-70
2022/07/10 04:15:32;;;;;;;4.93;1.88;;;;;;;10.92;76.75;99231.59;4136122;28;20360;-70
2022/07/10 04:17:32;;;;;;;2.00;1.50;;;;;;;10.89;77.04;99226.81;4138464;28;20446;-70
2022/07/10 04:19:33;;;;;;;3.00;1.50;;;;;;;10.96;76.62;99227.75;4137705;28;20811;-70
2022/07/10 04:21:33;;;;;;;3.88;1.60;;;;;;;11.00;76.48;99227.03;4137488;28;20062;-70
2022/07/10 04:23:33;;;;;;;3.97;1.80;;;;;;;11.05;75.68;99221.22;4137880;28;20049;-70
2022/07/10 04:25:34;;;;;;;6.50;2.33;;;;;;;11.07;76.11;99216.09;4137150;28;20037;-70
2022/07/10 04:27:34;;;;;;;7.75;3.63;;;;;;;11.11;75.75;99219.78;4137013;28;20518;-70
2022/07/10 04:29:34;;;;;;;8.63;3.10;;;;;;;11.15;75.03;99221.44;4137046;28;20446;-70
2022/07/10 04:31:35;;;;;;;5.72;2.38;;;;;;;11.29;73.45;99220.13;4137975;28;20117;-70
2022/07/10 04:33:35;;;;;;;3.17;1.73;;;;;;;11.33;74.19;99221.00;4136298;28;20060;-70
2022/07/10 04:35:35;;;;;;;6.03;1.40;;;;;;;11.38;72.86;99220.72;4133937;28;20482;-70
2022/07/10 04:37:36;;;;;;;1.73;0.93;;;;;;;11.45;72.55;99218.09;4135558;28;20318;-70
2022/07/10 04:39:37;;;;;;;3.20;1.02;;;;;;;11.49;72.42;99216.97;4134951;28;20145;-70
2022/07/10 04:41:37;;;;;;;0.70;0.70;;;;;;;11.60;71.94;99222.75;4134128;28;20317;-70
2022/07/10 04:43:38;;;;;;;1.98;0.90;;;;;;;11.54;72.03;99230.53;4135206;28;20029;-70
2022/07/10 04:45:38;;;;;;;3.60;1.00;;;;;;;11.52;72.40;99229.31;4134290;28;20273;-70
2022/07/10 04:47:38;;;;;;;2.13;0.90;;;;;;;11.50;73.34;99237.16;4134888;28;20370;-70
2022/07/10 04:49:39;;;;;;;5.72;1.00;;;;;;;11.55;72.60;99247.97;4133506;28;20369;-70
2022/07/10 04:51:39;;;;;;;2.03;1.00;;;;;;;11.54;72.50;99244.41;4133987;28;20026;-70
2022/07/10 04:53:40;;;;;;;5.70;1.27;;;;;;;11.60;72.65;99246.88;4134647;28;20405;-70
2022/07/10 04:55:40;;;;;;;2.38;1.05;;;;;;;11.57;72.77;99239.28;4133292;28;20057;-70
2022/07/10 04:57:44;;;;;;;3.95;0.88;;;;;;;11.60;73.00;99249.66;4135655;28;20374;-70
2022/07/10 04:59:44;;;;;;;4.65;1.10;;;;;;;11.63;72.73;99249.72;4132594;28;20033;-70
2022/07/10 05:01:44;;;;;;;1.55;0.88;;;;;;;11.62;73.49;99244.53;4134667;28;20370;-70
2022/07/10 05:03:45;;;;;;;2.35;1.10;;;;;;;11.66;73.19;99250.94;4134836;28;20076;-70
2022/07/10 05:05:45;;;;;;;3.13;1.20;;;;;;;11.69;73.00;99250.22;4134280;28;20022;-70
2022/07/10 05:07:45;;;;;;;2.85;1.00;;;;;;;11.65;71.26;99241.03;4134469;28;20120;-70
2022/07/10 05:09:46;;;;;;;1.88;0.98;;;;;;;11.70;71.15;99243.50;4135226;28;20095;-70
2022/07/10 05:11:47;;;;;;;2.97;0.82;;;;;;;11.70;71.53;99238.78;4136211;28;20116;-70
2022/07/10 05:13:48;;;;;;;3.08;1.00;;;;;;;11.72;71.55;99241.97;4136906;28;20422;-70
2022/07/10 05:15:49;;;;;;;3.47;1.17;;;;;;;11.76;71.16;99253.94;4136710;28;20389;-70
2022/07/10 05:17:50;;;;;;;2.30;0.98;;;;;;;11.73;71.90;99246.34;4136053;28;20313;-70
2022/07/10 05:19:51;;;;;;;8.10;1.70;;;;;;;11.76;71.73;99256.72;4136304;28;20050;-70
2022/07/10 05:21:51;;;;;;;2.70;1.23;;;;;;;11.76;71.52;99244.81;4136335;28;20030;-70
2022/07/10 05:23:52;;;;;;;4.97;1.00;;;;;;;11.80;72.07;99249.28;4136173;28;20113;-70
2022/07/10 05:25:53;;;;;;;2.88;1.23;;;;;;;11.82;72.11;99252.47;4137243;28;20037;-70
2022/07/10 05:27:53;;;;;;;3.72;1.10;;;;;;;11.88;72.25;99249.41;4136719;28;20369;-70
2022/07/10 05:29:53;;;;;;;1.98;0.80;;;;;;;11.87;72.33;99256.94;4136277;28;20085;-70
2022/07/10 05:31:54;;;;;;;1.73;0.88;;;;;;;11.76;72.69;99264.22;4136144;28;20084;-70
2022/07/10 05:33:54;;;;;;;3.60;0.98;;;;;;;11.71;73.20;99256.19;4136894;28;20663;-70
2022/07/10 05:35:55;;;;;;;1.95;0.88;;;;;;;11.77;72.88;99249.19;4135852;28;20525;-70
2022/07/10 05:37:56;;;;;;;2.92;1.35;;;;;;;11.80;72.74;99249.28;4136509;28;20148;-70
2022/07/10 05:39:56;;;;;;;2.00;0.93;;;;;;;11.89;72.78;99267.66;4136347;28;20065;-70
2022/07/10 05:41:57;;;;;;;2.13;0.80;;;;;;;11.81;72.91;99261.19;4136348;28;20221;-70
2022/07/10 05:43:58;;;;;;;3.83;1.00;;;;;;;11.66;73.79;99251.75;4136771;28;20041;-70
2022/07/10 05:45:59;;;;;;;1.20;0.75;;;;;;;11.66;74.73;99271.16;4135512;28;20054;-70
2022/07/10 05:47:59;;;;;;;1.23;0.80;;;;;;;11.75;74.67;99262.59;4135731;28;20042;-70
2022/07/10 05:50:00;;;;;;;1.60;0.88;;;;;;;11.75;75.45;99266.22;4136016;28;20049;-70
2022/07/10 05:52:00;;;;;;;3.97;1.23;;;;;;;11.67;75.17;99260.88;4136825;28;20096;-70
2022/07/10 05:54:00;;;;;;;0.95;0.80;;;;;;;11.65;74.96;99255.69;4131762;28;20482;-70
2022/07/10 05:56:02;;;;;;;3.45;1.10;;;;;;;11.65;74.62;99255.69;4136213;28;20396;-70
2022/07/10 05:58:02;;;;;;;4.72;1.23;;;;;;;11.72;75.25;99255.81;4136561;28;20117;-70
2022/07/10 06:00:06;;;;;;;1.92;1.00;;;;;;;11.77;75.37;99243.66;4124694;28;20057;-70
2022/07/10 06:02:07;;;;;;;1.40;0.80;;;;;;;11.83;75.41;99247.75;4134750;28;20041;-70
2022/07/10 06:04:08;;;;;;;4.88;1.50;;;;;;;11.91;75.25;99254.22;4136663;28;20053;-70
2022/07/10 06:06:08;;;;;;;4.75;1.08;;;;;;;11.90;74.51;99252.63;4134022;28;20029;-70
2022/07/10 06:08:10;;;;;;;1.02;0.90;;;;;;;12.03;74.65;99257.63;4059280;28;20045;-70
2022/07/10 06:10:11;;;;;;;2.40;0.90;;;;;;;12.01;73.84;99256.41;4134358;28;20170;-70
2022/07/10 06:12:11;;;;;;;3.38;1.15;;;;;;;12.12;73.38;99253.81;4134079;28;20041;-70
2022/07/10 06:14:12;;;;;;;3.10;1.25;;;;;;;12.15;73.80;99253.06;4135249;28;20458;-70
2022/07/10 06:16:12;;;;;;;6.07;1.80;;;;;;;12.25;73.14;99258.81;4135280;28;20072;-70
2022/07/10 06:18:12;;;;;;;6.47;2.92;;;;;;;12.30;72.64;99255.72;4135986;28;20144;-70
2022/07/10 06:20:13;;;;;;;4.93;2.55;;;;;;;12.36;73.32;99259.00;4135096;28;20322;-70
2022/07/10 06:22:31;;;;;;;9.75;3.65;;;;;;;12.37;72.87;99255.84;4136144;28;20471;-70
2022/07/10 06:24:32;;;;;;;8.00;3.22;;;;;;;12.42;72.68;99260.28;4137905;28;20056;-70
2022/07/10 06:26:32;;;;;;;7.60;3.88;;;;;;;12.47;72.48;99253.63;4139233;28;20042;-70
2022/07/10 06:28:34;;;;;;;7.18;3.10;;;;;;;12.49;72.11;99259.59;4138552;28;20037;-70
2022/07/10 06:30:35;;;;;;;4.95;1.83;;;;;;;12.55;71.31;99252.56;4139614;28;20030;-70
2022/07/10 06:32:35;;;;;;;5.32;1.58;;;;;;;12.67;70.54;99259.91;4138992;28;20493;-70
2022/07/10 06:34:35;;;;;;;6.65;2.10;;;;;;;12.64;70.95;99251.13;4138398;28;20523;-70
2022/07/10 06:36:36;;;;;;;5.47;2.00;;;;;;;12.71;70.29;99255.97;4138098;28;20034;-70
2022/07/10 06:38:36;;;;;;;4.25;1.70;;;;;;;12.80;71.23;99252.94;4138055;28;20144;-70
2022/07/10 06:40:38;;;;;;;3.95;1.77;;;;;;;12.88;71.08;99252.66;4137790;28;20464;-70
2022/07/10 06:42:38;;;;;;;3.60;1.35;;;;;;;12.83;69.97;99257.75;4137898;28;20025;-70
2022/07/10 06:44:38;;;;;;;5.05;1.10;;;;;;;12.75;69.69;99265.19;4138015;28;20040;-70
2022/07/10 06:46:39;;;;;;;4.45;1.45;;;;;;;12.88;70.62;99249.88;4138311;28;20128;-70
2022/07/10 06:48:40;;;;;;;3.10;1.40;;;;;;;12.91;70.53;99245.59;4136575;28;20248;-70
2022/07/10 06:50:40;;;;;;;4.43;1.35;;;;;;;12.71;70.02;99264.31;4134277;28;20034;-70
2022/07/10 06:52:41;;;;;;;4.80;1.50;;;;;;;12.73;70.41;99255.59;4137034;28;20034;-70
2022/07/10 06:54:42;;;;;;;2.92;1.17;;;;;;;12.72;70.35;99260.34;4136519;28;20120;-70
2022/07/10 06:56:42;;;;;;;5.05;1.65;;;;;;;12.78;70.79;99258.88;4138269;28;20054;-70
2022/07/10 06:58:43;;;;;;;4.47;1.40;;;;;;;12.81;71.67;99255.34;4137261;28;20084;-71
2022/07/10 07:00:43;;;;;;;4.40;1.48;;;;;;;12.90;71.15;99249.50;4139247;28;20065;-70
2022/07/10 07:02:43;;;;;;;3.10;1.42;;;;;;;12.92;70.59;99267.41;4137914;28;20029;-70
2022/07/10 07:04:45;;;;;;;4.50;1.40;;;;;;;12.72;70.55;99267.88;4137887;28;20029;-70
2022/07/10 07:06:46;;;;;;;6.85;1.80;;;;;;;12.59;70.47;99264.53;4137650;28;20049;-70
2022/07/10 07:08:46;;;;;;;3.63;1.77;;;;;;;12.49;71.11;99267.91;4136363;28;20053;-70
2022/07/10 07:10:46;;;;;;;7.10;2.25;;;;;;;12.45;71.32;99258.75;4135901;28;20404;-70
2022/07/10 07:12:47;;;;;;;5.53;1.95;;;;;;;12.47;71.73;99273.84;4138582;28;20029;-70
2022/07/10 07:14:47;;;;;;;3.47;1.65;;;;;;;12.47;71.82;99279.38;4136502;28;20045;-70
2022/07/10 07:16:58;;;;;;;3.30;1.30;;;;;;;12.47;72.50;99270.25;4137904;28;20379;-70
2022/07/10 07:18:58;;;;;;;3.40;1.15;;;;;;;12.57;72.25;99261.31;4136722;28;20152;-70
2022/07/10 07:23:19;;;;;;;1.88;0.98;;;;;;;12.72;72.48;99267.88;4138577;28;20133;-70
2022/07/10 07:25:20;;;;;;;4.72;1.05;;;;;;;12.80;72.64;99264.84;4137412;28;20018;-70
2022/07/10 07:27:20;;;;;;;3.42;1.27;;;;;;;12.92;71.91;99247.97;4136353;28;20036;-70
2022/07/10 07:29:20;;;;;;;3.83;1.27;;;;;;;12.93;71.69;99249.56;4136683;28;20049;-70
2022/07/10 07:31:22;;;;;;;6.57;1.80;;;;;;;12.98;71.26;99261.53;4136677;28;20149;-70
2022/07/10 07:33:22;;;;;;;3.10;1.42;;;;;;;13.09;72.44;99268.06;4136593;28;20664;-70
2022/07/10 07:35:23;;;;;;;3.28;1.60;;;;;;;13.16;72.11;99260.63;4135116;28;20055;-70
2022/07/10 07:37:23;;;;;;;12.38;2.90;;;;;;;13.15;71.48;99267.31;4133520;28;20633;-70
2022/07/10 07:39:24;;;;;;;3.97;2.03;;;;;;;13.20;71.87;99261.47;4137080;28;20030;-70
2022/07/10 07:41:24;;;;;;;5.95;2.83;;;;;;;13.24;71.36;99267.09;4135102;28;20081;-70
2022/07/10 07:43:25;;;;;;;6.20;2.08;;;;;;;13.31;72.31;99252.47;4136401;28;20030;-70
2022/07/10 07:45:26;;;;;;;6.57;2.70;;;;;;;13.28;71.60;99259.59;4136359;28;20498;-70
2022/07/10 07:47:27;;;;;;;7.95;2.20;;;;;;;13.36;71.58;99258.50;4137577;28;20030;-70
2022/07/10 07:49:28;;;;;;;5.47;1.70;;;;;;;13.41;69.76;99258.19;4138489;28;20646;-70
2022/07/10 07:51:28;;;;;;;3.80;1.42;;;;;;;13.46;70.54;99257.84;4137562;28;20037;-70
2022/07/10 07:53:28;;;;;;;4.13;1.60;;;;;;;13.58;70.65;99269.91;4137826;28;20038;-70
2022/07/10 07:55:30;;;;;;;3.70;1.55;;;;;;;13.55;68.70;99257.53;4137034;28;20463;-70
2022/07/10 07:57:30;;;;;;;7.90;1.98;;;;;;;13.54;68.59;99255.16;4137319;28;20116;-70
2022/07/10 07:59:31;;;;;;;6.60;1.63;;;;;;;13.48;68.22;99254.69;4137467;28;20060;-70
2022/07/10 08:01:31;;;;;;;4.00;1.55;;;;;;;13.39;69.37;99243.06;4133600;28;20201;-70
2022/07/10 08:03:31;;;;;;;5.50;1.38;;;;;;;13.59;68.46;99254.81;4136679;28;20450;-70
2022/07/10 08:05:32;;;;;;;1.83;1.13;;;;;;;13.62;67.65;99254.06;4136775;28;20417;-70
2022/07/10 08:07:40;;;;;;;3.72;1.10;;;;;;;13.65;66.09;99251.34;4136648;28;20474;-70
2022/07/10 08:09:41;;;;;;;3.30;0.93;;;;;;;13.55;66.86;99256.75;4137585;28;20076;-70
2022/07/10 08:11:41;;;;;;;3.92;1.02;;;;;;;13.59;67.01;99255.63;4137989;28;20041;-70
2022/07/10 08:13:43;;;;;;;3.63;0.80;;;;;;;13.54;65.10;99260.72;4137659;28;20041;-70
2022/07/10 08:15:43;;;;;;;2.20;0.93;;;;;;;13.58;64.86;99262.38;4137617;28;20037;-71
2022/07/10 08:17:47;;;;;;;1.35;1.25;;;;;;;13.60;64.83;99259.19;4137571;28;20444;-71
2022/07/10 08:19:48;;;;;;;2.40;1.00;;;;;;;13.67;64.86;99268.44;4135694;28;20061;-70
2022/07/10 08:21:48;;;;;;;1.63;0.75;;;;;;;13.59;64.64;99260.38;4137942;28;20441;-70
2022/07/10 08:23:49;;;;;;;2.95;1.10;;;;;;;13.44;66.48;99260.19;4137090;28;20026;-70
2022/07/10 08:25:49;;;;;;;1.50;0.95;;;;;;;13.52;67.48;99254.75;4137003;28;20068;-70
2022/07/10 08:27:50;;;;;;;1.77;1.00;;;;;;;13.49;67.85;99259.88;4137480;28;20866;-70
2022/07/10 08:29:51;;;;;;;3.42;1.20;;;;;;;13.52;68.36;99251.97;4136989;28;20371;-70
2022/07/10 08:31:51;;;;;;;3.35;1.10;;;;;;;13.64;67.64;99251.69;4137180;28;20029;-70
2022/07/10 08:33:52;;;;;;;5.07;1.10;;;;;;;13.75;67.17;99253.44;4135887;28;20042;-70
2022/07/10 08:35:53;;;;;;;3.78;1.05;;;;;;;13.64;67.82;99251.69;4135724;28;20153;-71
2022/07/10 08:37:53;;;;;;;2.35;1.00;;;;;;;13.54;67.60;99258.72;4131574;28;20148;-70
2022/07/10 08:39:54;;;;;;;3.50;1.25;;;;;;;13.61;66.92;99252.47;4135914;28;20501;-70
2022/07/10 08:41:54;;;;;;;2.63;1.30;;;;;;;13.83;66.48;99248.75;4135493;28;20033;-71
2022/07/10 08:43:54;;;;;;;2.72;1.40;;;;;;;13.99;66.84;99254.06;4137711;28;20366;-70
2022/07/10 08:45:56;;;;;;;2.85;1.00;;;;;;;14.03;65.91;99255.69;4138037;28;20095;-70
2022/07/10 08:47:59;;;;;;;3.55;1.08;;;;;;;14.18;66.57;99248.28;4135696;28;20501;-70
2022/07/10 08:49:59;;;;;;;1.75;1.00;;;;;;;14.37;65.14;99235.31;4136242;28;20426;-70
2022/07/10 08:52:12;;;;;;;3.65;1.17;;;;;;;14.48;62.75;99233.44;4137272;28;20057;-71
2022/07/10 08:54:14;;;;;;;2.42;0.90;;;;;;;14.59;63.40;99246.28;4137060;28;20422;-70
2022/07/10 08:56:14;;;;;;;2.50;0.90;;;;;;;14.71;61.67;99244.38;4136600;28;20038;-71
2022/07/10 08:58:16;;;;;;;2.22;1.00;;;;;;;14.74;62.21;99236.06;4137040;28;20331;-71
2022/07/10 09:00:16;;;;;;;2.17;0.80;;;;;;;14.97;62.58;99229.41;4136707;28;20462;-71
2022/07/10 09:02:17;;;;;;;2.38;0.85;;;;;;;14.92;60.35;99230.59;4135840;28;20124;-71
2022/07/10 09:04:18;;;;;;;1.38;0.85;;;;;;;14.90;60.88;99241.34;4136303;28;20026;-71
2022/07/10 09:06:19;;;;;;;4.65;1.02;;;;;;;14.83;59.18;99230.94;4136881;28;20640;-71
2022/07/10 09:08:28;;;;;;;4.40;0.88;;;;;;;14.76;58.68;99233.66;4136339;28;20179;-71
2022/07/10 09:10:28;;;;;;;2.22;0.85;;;;;;;14.65;57.93;99232.00;4135958;28;20041;-70
2022/07/10 09:12:29;;;;;;;2.20;0.90;;;;;;;14.76;59.07;99232.88;4136315;28;20205;-70
2022/07/10 09:14:29;;;;;;;2.03;0.90;;;;;;;14.81;60.28;99236.09;4135707;28;20423;-71
2022/07/10 09:16:34;;;;;;;1.55;0.90;;;;;;;14.97;62.38;99230.19;4135540;28;20200;-71
2022/07/10 09:18:35;;;;;;;2.83;0.70;;;;;;;15.06;60.08;99227.91;4135844;28;20492;-71
2022/07/10 09:20:37;;;;;;;2.58;0.93;;;;;;;15.08;61.13;99233.88;4136728;28;20041;-71
2022/07/10 09:22:38;;;;;;;5.40;1.00;;;;;;;15.16;60.96;99241.09;4136958;28;20091;-71
2022/07/10 09:24:40;;;;;;;2.60;1.00;;;;;;;14.92;59.70;99230.59;4136547;28;20321;-71
2022/07/10 09:26:42;;;;;;;2.55;1.00;;;;;;;14.76;60.97;99232.88;4134935;28;20029;-71
2022/07/10 09:28:43;;;;;;;2.80;1.42;;;;;;;14.78;60.76;99230.50;4135811;28;20041;-71
2022/07/10 09:30:43;;;;;;;2.47;1.15;;;;;;;14.85;61.18;99236.13;4136112;28;20545;-71
2022/07/10 09:32:44;;;;;;;1.60;0.85;;;;;;;14.86;60.83;99237.72;4136999;28;20647;-71
2022/07/10 09:34:49;;;;;;;1.70;1.02;;;;;;;14.89;58.91;99236.91;4136745;28;20446;-71